sensor_id;sensor_type;location;lat;lon;timestamp;temperature;humidity
52656;SHT85;35474;51.032;6.998;2023-02-28T00:01:35;0.44;69.38
52656;SHT85;35474;51.032;6.998;2023-02-28T00:04:02;0.51;69.07
52656;SHT85;35474;51.032;6.998;2023-02-28T00:06:28;0.44;69.39
52656;SHT85;35474;51.032;6.998;2023-02-28T00:08:55;0.37;69.37
52656;SHT85;35474;51.032;6.998;2023-02-28T00:11:23;0.37;69.47
52656;SHT85;35474;51.032;6.998;2023-02-28T00:13:50;0.27;69.57
52656;SHT85;35474;51.032;6.998;2023-02-28T00:16:19;0.37;69.46
52656;SHT85;35474;51.032;6.998;2023-02-28T00:18:48;0.30;69.86
52656;SHT85;35474;51.032;6.998;2023-02-28T00:21:16;0.37;69.65
52656;SHT85;35474;51.032;6.998;2023-02-28T00:23:44;0.38;69.63
52656;SHT85;35474;51.032;6.998;2023-02-28T00:26:11;0.48;69.73
52656;SHT85;35474;51.032;6.998;2023-02-28T00:28:39;0.38;69.57
52656;SHT85;35474;51.032;6.998;2023-02-28T00:31:06;0.27;69.78
52656;SHT85;35474;51.032;6.998;2023-02-28T00:33:33;0.17;70.07
52656;SHT85;35474;51.032;6.998;2023-02-28T00:36:01;0.18;70.31
52656;SHT85;35474;51.032;6.998;2023-02-28T00:38:30;0.20;70.45
52656;SHT85;35474;51.032;6.998;2023-02-28T00:40:57;0.18;70.43
52656;SHT85;35474;51.032;6.998;2023-02-28T00:43:24;0.13;70.25
52656;SHT85;35474;51.032;6.998;2023-02-28T00:45:51;0.11;70.56
52656;SHT85;35474;51.032;6.998;2023-02-28T00:48:18;0.11;70.60
52656;SHT85;35474;51.032;6.998;2023-02-28T00:50:47;0.09;70.87
52656;SHT85;35474;51.032;6.998;2023-02-28T00:53:16;0.06;70.97
52656;SHT85;35474;51.032;6.998;2023-02-28T00:55:43;0.03;71.04
52656;SHT85;35474;51.032;6.998;2023-02-28T01:00:34;0.06;71.41
52656;SHT85;35474;51.032;6.998;2023-02-28T01:03:44;0.07;71.04
52656;SHT85;35474;51.032;6.998;2023-02-28T01:06:27;0.02;71.08
52656;SHT85;35474;51.032;6.998;2023-02-28T01:09:00;0.00;71.18
52656;SHT85;35474;51.032;6.998;2023-02-28T01:14:37;-0.06;71.46
52656;SHT85;35474;51.032;6.998;2023-02-28T01:17:22;-0.11;71.58
52656;SHT85;35474;51.032;6.998;2023-02-28T01:19:52;-0.08;71.89
52656;SHT85;35474;51.032;6.998;2023-02-28T01:22:23;-0.07;71.68
52656;SHT85;35474;51.032;6.998;2023-02-28T01:24:50;-0.11;71.89
52656;SHT85;35474;51.032;6.998;2023-02-28T01:27:27;-0.07;71.75
52656;SHT85;35474;51.032;6.998;2023-02-28T01:30:05;0.02;71.91
52656;SHT85;35474;51.032;6.998;2023-02-28T01:32:50;0.02;71.47
52656;SHT85;35474;51.032;6.998;2023-02-28T01:35:28;-0.07;71.50
52656;SHT85;35474;51.032;6.998;2023-02-28T01:38:16;-0.04;71.38
52656;SHT85;35474;51.032;6.998;2023-02-28T01:41:02;-0.01;71.25
52656;SHT85;35474;51.032;6.998;2023-02-28T01:47:16;-0.03;71.24
52656;SHT85;35474;51.032;6.998;2023-02-28T01:50:27;-0.01;71.25
52656;SHT85;35474;51.032;6.998;2023-02-28T01:53:04;-0.06;71.38
52656;SHT85;35474;51.032;6.998;2023-02-28T01:55:48;0.00;71.13
52656;SHT85;35474;51.032;6.998;2023-02-28T01:58:21;-0.15;71.10
52656;SHT85;35474;51.032;6.998;2023-02-28T02:00:50;-0.11;71.57
52656;SHT85;35474;51.032;6.998;2023-02-28T02:03:33;-0.01;71.12
52656;SHT85;35474;51.032;6.998;2023-02-28T02:06:09;-0.14;71.43
52656;SHT85;35474;51.032;6.998;2023-02-28T02:08:55;0.07;71.04
52656;SHT85;35474;51.032;6.998;2023-02-28T02:11:33;-0.01;70.63
52656;SHT85;35474;51.032;6.998;2023-02-28T02:15:03;0.06;70.66
52656;SHT85;35474;51.032;6.998;2023-02-28T02:17:44;0.09;69.90
52656;SHT85;35474;51.032;6.998;2023-02-28T02:26:58;0.07;69.69
52656;SHT85;35474;51.032;6.998;2023-02-28T02:29:57;-0.11;70.19
52656;SHT85;35474;51.032;6.998;2023-02-28T02:35:55;0.21;68.94
52656;SHT85;35474;51.032;6.998;2023-02-28T02:42:13;0.00;68.77
52656;SHT85;35474;51.032;6.998;2023-02-28T02:48:20;-0.08;69.28
52656;SHT85;35474;51.032;6.998;2023-02-28T02:51:10;-0.13;69.40
52656;SHT85;35474;51.032;6.998;2023-02-28T02:53:55;-0.38;69.79
52656;SHT85;35474;51.032;6.998;2023-02-28T03:04:01;-0.38;70.27
52656;SHT85;35474;51.032;6.998;2023-02-28T03:06:38;-0.42;70.57
52656;SHT85;35474;51.032;6.998;2023-02-28T03:09:24;-0.48;70.75
52656;SHT85;35474;51.032;6.998;2023-02-28T03:11:55;-0.46;70.96
52656;SHT85;35474;51.032;6.998;2023-02-28T03:18:02;-0.54;71.07
52656;SHT85;35474;51.032;6.998;2023-02-28T03:20:16;-0.58;71.56
52656;SHT85;35474;51.032;6.998;2023-02-28T03:23:38;-0.69;71.84
52656;SHT85;35474;51.032;6.998;2023-02-28T03:26:34;-0.64;72.20
52656;SHT85;35474;51.032;6.998;2023-02-28T03:29:28;-0.59;72.38
52656;SHT85;35474;51.032;6.998;2023-02-28T03:32:27;-0.56;72.31
52656;SHT85;35474;51.032;6.998;2023-02-28T03:35:19;-0.69;72.41
52656;SHT85;35474;51.032;6.998;2023-02-28T03:37:59;-0.61;72.71
52656;SHT85;35474;51.032;6.998;2023-02-28T03:40:43;-0.62;72.24
52656;SHT85;35474;51.032;6.998;2023-02-28T03:43:21;-0.64;72.57
52656;SHT85;35474;51.032;6.998;2023-02-28T03:46:01;-0.65;72.48
52656;SHT85;35474;51.032;6.998;2023-02-28T03:48:48;-0.70;72.85
52656;SHT85;35474;51.032;6.998;2023-02-28T03:51:52;-0.69;72.86
52656;SHT85;35474;51.032;6.998;2023-02-28T03:54:30;-0.64;72.82
52656;SHT85;35474;51.032;6.998;2023-02-28T03:57:36;-0.79;73.15
52656;SHT85;35474;51.032;6.998;2023-02-28T04:00:20;-0.80;73.52
52656;SHT85;35474;51.032;6.998;2023-02-28T04:02:57;-0.75;73.62
52656;SHT85;35474;51.032;6.998;2023-02-28T04:05:33;-0.79;73.21
52656;SHT85;35474;51.032;6.998;2023-02-28T04:08:46;-0.70;73.53
52656;SHT85;35474;51.032;6.998;2023-02-28T04:11:35;-0.80;73.19
52656;SHT85;35474;51.032;6.998;2023-02-28T04:14:05;-0.80;73.46
52656;SHT85;35474;51.032;6.998;2023-02-28T04:16:45;-0.90;73.42
52656;SHT85;35474;51.032;6.998;2023-02-28T04:19:24;-0.83;73.32
52656;SHT85;35474;51.032;6.998;2023-02-28T04:22:11;-0.82;73.08
52656;SHT85;35474;51.032;6.998;2023-02-28T04:24:47;-0.75;72.96
52656;SHT85;35474;51.032;6.998;2023-02-28T04:27:43;-0.83;72.75
52656;SHT85;35474;51.032;6.998;2023-02-28T04:30:45;-0.79;72.85
52656;SHT85;35474;51.032;6.998;2023-02-28T04:33:17;-0.82;72.65
52656;SHT85;35474;51.032;6.998;2023-02-28T04:35:58;-0.80;72.20
52656;SHT85;35474;51.032;6.998;2023-02-28T04:38:52;-0.73;71.89
52656;SHT85;35474;51.032;6.998;2023-02-28T04:41:40;-0.62;71.19
52656;SHT85;35474;51.032;6.998;2023-02-28T04:44:44;-0.75;71.27
52656;SHT85;35474;51.032;6.998;2023-02-28T04:47:18;-0.76;71.30
52656;SHT85;35474;51.032;6.998;2023-02-28T04:50:02;-0.70;70.73
52656;SHT85;35474;51.032;6.998;2023-02-28T04:52:50;-0.56;70.41
52656;SHT85;35474;51.032;6.998;2023-02-28T04:55:45;-0.66;70.18
52656;SHT85;35474;51.032;6.998;2023-02-28T04:58:46;-0.59;70.17
52656;SHT85;35474;51.032;6.998;2023-02-28T05:02:09;-0.59;70.04
52656;SHT85;35474;51.032;6.998;2023-02-28T05:04:42;-0.59;69.77
52656;SHT85;35474;51.032;6.998;2023-02-28T05:07:26;-0.61;70.05
52656;SHT85;35474;51.032;6.998;2023-02-28T05:10:07;-0.55;69.98
52656;SHT85;35474;51.032;6.998;2023-02-28T05:12:48;-0.62;69.97
52656;SHT85;35474;51.032;6.998;2023-02-28T05:15:39;-0.68;70.29
52656;SHT85;35474;51.032;6.998;2023-02-28T05:18:56;-0.72;70.16
52656;SHT85;35474;51.032;6.998;2023-02-28T05:21:52;-0.72;70.16
52656;SHT85;35474;51.032;6.998;2023-02-28T05:24:23;-0.73;70.32
52656;SHT85;35474;51.032;6.998;2023-02-28T05:26:51;-0.73;70.26
52656;SHT85;35474;51.032;6.998;2023-02-28T05:32:51;-0.73;70.07
52656;SHT85;35474;51.032;6.998;2023-02-28T05:35:38;-0.66;69.84
52656;SHT85;35474;51.032;6.998;2023-02-28T05:38:57;-0.61;69.39
52656;SHT85;35474;51.032;6.998;2023-02-28T05:41:57;-0.70;69.61
52656;SHT85;35474;51.032;6.998;2023-02-28T05:44:30;-0.64;69.43
52656;SHT85;35474;51.032;6.998;2023-02-28T05:46:57;-0.65;69.14
52656;SHT85;35474;51.032;6.998;2023-02-28T05:49:29;-0.66;68.98
52656;SHT85;35474;51.032;6.998;2023-02-28T05:52:02;-0.72;69.04
52656;SHT85;35474;51.032;6.998;2023-02-28T05:54:33;-0.69;69.26
52656;SHT85;35474;51.032;6.998;2023-02-28T05:57:02;-0.70;68.79
52656;SHT85;35474;51.032;6.998;2023-02-28T05:59:52;-0.62;68.64
52656;SHT85;35474;51.032;6.998;2023-02-28T06:02:21;-0.61;68.40
52656;SHT85;35474;51.032;6.998;2023-02-28T06:05:20;-0.68;68.20
52656;SHT85;35474;51.032;6.998;2023-02-28T06:07:47;-0.66;68.13
52656;SHT85;35474;51.032;6.998;2023-02-28T06:10:19;-0.56;68.65
52656;SHT85;35474;51.032;6.998;2023-02-28T06:12:48;-0.79;68.18
52656;SHT85;35474;51.032;6.998;2023-02-28T06:15:15;-0.73;68.27
52656;SHT85;35474;51.032;6.998;2023-02-28T06:17:51;-0.85;68.24
52656;SHT85;35474;51.032;6.998;2023-02-28T06:20:24;-0.82;68.12
52656;SHT85;35474;51.032;6.998;2023-02-28T06:23:11;-0.86;68.01
52656;SHT85;35474;51.032;6.998;2023-02-28T06:25:49;-0.96;68.04
52656;SHT85;35474;51.032;6.998;2023-02-28T06:28:19;-0.99;68.43
52656;SHT85;35474;51.032;6.998;2023-02-28T06:30:55;-0.87;68.17
52656;SHT85;35474;51.032;6.998;2023-02-28T06:33:47;-0.99;68.02
52656;SHT85;35474;51.032;6.998;2023-02-28T06:36:50;-0.86;67.85
52656;SHT85;35474;51.032;6.998;2023-02-28T06:39:37;-0.61;67.66
52656;SHT85;35474;51.032;6.998;2023-02-28T06:42:09;-0.61;66.80
52656;SHT85;35474;51.032;6.998;2023-02-28T06:45:01;-0.45;66.57
52656;SHT85;35474;51.032;6.998;2023-02-28T06:47:30;-0.32;66.28
52656;SHT85;35474;51.032;6.998;2023-02-28T06:49:57;0.09;64.68
52656;SHT85;35474;51.032;6.998;2023-02-28T06:52:27;0.36;63.59
52656;SHT85;35474;51.032;6.998;2023-02-28T06:54:54;0.51;62.48
52656;SHT85;35474;51.032;6.998;2023-02-28T06:57:30;0.81;61.43
52656;SHT85;35474;51.032;6.998;2023-02-28T06:59:59;0.96;60.57
52656;SHT85;35474;51.032;6.998;2023-02-28T07:02:26;1.26;59.61
52656;SHT85;35474;51.032;6.998;2023-02-28T07:04:53;1.41;58.77
52656;SHT85;35474;51.032;6.998;2023-02-28T07:07:20;1.72;57.81
52656;SHT85;35474;51.032;6.998;2023-02-28T07:09:51;1.98;57.43
52656;SHT85;35474;51.032;6.998;2023-02-28T07:12:18;2.33;55.93
52656;SHT85;35474;51.032;6.998;2023-02-28T07:14:44;2.47;55.50
52656;SHT85;35474;51.032;6.998;2023-02-28T07:17:11;2.94;53.67
52656;SHT85;35474;51.032;6.998;2023-02-28T07:19:38;2.94;52.64
52656;SHT85;35474;51.032;6.998;2023-02-28T07:22:05;2.97;52.27
52656;SHT85;35474;51.032;6.998;2023-02-28T07:24:32;2.92;53.20
52656;SHT85;35474;51.032;6.998;2023-02-28T07:26:59;3.20;51.09
52656;SHT85;35474;51.032;6.998;2023-02-28T07:32:34;3.44;50.31
52656;SHT85;35474;51.032;6.998;2023-02-28T07:35:07;3.67;48.73
52656;SHT85;35474;51.032;6.998;2023-02-28T07:37:35;3.64;48.18
52656;SHT85;35474;51.032;6.998;2023-02-28T07:40:06;3.74;47.65
52656;SHT85;35474;51.032;6.998;2023-02-28T07:42:38;3.76;48.08
52656;SHT85;35474;51.032;6.998;2023-02-28T07:45:05;4.08;46.92
52656;SHT85;35474;51.032;6.998;2023-02-28T07:47:32;4.28;45.56
52656;SHT85;35474;51.032;6.998;2023-02-28T07:49:59;4.38;46.19
52656;SHT85;35474;51.032;6.998;2023-02-28T07:52:26;4.35;45.46
52656;SHT85;35474;51.032;6.998;2023-02-28T07:54:54;4.08;45.95
52656;SHT85;35474;51.032;6.998;2023-02-28T07:57:21;4.34;45.34
52656;SHT85;35474;51.032;6.998;2023-02-28T07:59:47;4.67;44.65
52656;SHT85;35474;51.032;6.998;2023-02-28T08:02:14;4.76;44.44
52656;SHT85;35474;51.032;6.998;2023-02-28T08:04:43;4.67;43.96
52656;SHT85;35474;51.032;6.998;2023-02-28T08:07:14;5.59;42.42
52656;SHT85;35474;51.032;6.998;2023-02-28T08:09:46;4.96;42.80
52656;SHT85;35474;51.032;6.998;2023-02-28T08:12:13;5.00;43.54
52656;SHT85;35474;51.032;6.998;2023-02-28T08:14:40;5.20;42.62
52656;SHT85;35474;51.032;6.998;2023-02-28T08:17:07;5.14;42.97
52656;SHT85;35474;51.032;6.998;2023-02-28T08:19:36;5.56;42.53
52656;SHT85;35474;51.032;6.998;2023-02-28T08:22:03;4.97;42.45
52656;SHT85;35474;51.032;6.998;2023-02-28T08:24:29;5.93;41.26
52656;SHT85;35474;51.032;6.998;2023-02-28T08:26:56;5.89;40.69
52656;SHT85;35474;51.032;6.998;2023-02-28T08:29:23;6.17;39.96
52656;SHT85;35474;51.032;6.998;2023-02-28T08:31:50;6.07;40.35
52656;SHT85;35474;51.032;6.998;2023-02-28T08:34:17;6.09;39.22
52656;SHT85;35474;51.032;6.998;2023-02-28T08:36:44;6.02;39.48
52656;SHT85;35474;51.032;6.998;2023-02-28T08:39:16;5.96;38.63
52656;SHT85;35474;51.032;6.998;2023-02-28T08:41:43;5.89;38.72
52656;SHT85;35474;51.032;6.998;2023-02-28T08:44:12;6.17;38.77
52656;SHT85;35474;51.032;6.998;2023-02-28T08:46:39;6.21;38.20
52656;SHT85;35474;51.032;6.998;2023-02-28T08:49:05;6.81;38.03
52656;SHT85;35474;51.032;6.998;2023-02-28T08:51:33;6.67;37.61
52656;SHT85;35474;51.032;6.998;2023-02-28T08:54:00;6.24;36.31
52656;SHT85;35474;51.032;6.998;2023-02-28T08:56:27;6.82;36.47
52656;SHT85;35474;51.032;6.998;2023-02-28T08:58:55;7.05;36.54
52656;SHT85;35474;51.032;6.998;2023-02-28T09:01:23;6.79;35.94
52656;SHT85;35474;51.032;6.998;2023-02-28T09:03:54;7.51;34.94
52656;SHT85;35474;51.032;6.998;2023-02-28T09:06:26;7.64;34.88
52656;SHT85;35474;51.032;6.998;2023-02-28T09:08:56;8.06;34.41
52656;SHT85;35474;51.032;6.998;2023-02-28T09:11:25;7.46;35.27
52656;SHT85;35474;51.032;6.998;2023-02-28T09:13:51;7.54;35.58
52656;SHT85;35474;51.032;6.998;2023-02-28T09:16:18;7.63;35.31
52656;SHT85;35474;51.032;6.998;2023-02-28T09:18:45;7.71;34.89
52656;SHT85;35474;51.032;6.998;2023-02-28T09:21:15;7.60;34.95
52656;SHT85;35474;51.032;6.998;2023-02-28T09:23:44;8.25;34.46
52656;SHT85;35474;51.032;6.998;2023-02-28T09:26:21;8.63;33.69
52656;SHT85;35474;51.032;6.998;2023-02-28T09:28:49;8.94;33.09
52656;SHT85;35474;51.032;6.998;2023-02-28T09:31:20;8.81;33.50
52656;SHT85;35474;51.032;6.998;2023-02-28T09:33:48;8.97;33.34
52656;SHT85;35474;51.032;6.998;2023-02-28T09:36:16;9.25;32.52
52656;SHT85;35474;51.032;6.998;2023-02-28T09:38:43;7.92;33.58
52656;SHT85;35474;51.032;6.998;2023-02-28T09:41:11;8.16;34.36
52656;SHT85;35474;51.032;6.998;2023-02-28T09:43:44;8.33;34.06
52656;SHT85;35474;51.032;6.998;2023-02-28T09:46:21;8.28;33.61
52656;SHT85;35474;51.032;6.998;2023-02-28T09:49:07;7.85;34.25
52656;SHT85;35474;51.032;6.998;2023-02-28T09:54:14;8.61;33.27
52656;SHT85;35474;51.032;6.998;2023-02-28T09:56:46;8.29;33.85
52656;SHT85;35474;51.032;6.998;2023-02-28T09:59:23;8.82;34.33
52656;SHT85;35474;51.032;6.998;2023-02-28T10:02:10;9.36;31.62
52656;SHT85;35474;51.032;6.998;2023-02-28T10:04:50;9.40;32.49
52656;SHT85;35474;51.032;6.998;2023-02-28T10:10:23;8.89;33.25
52656;SHT85;35474;51.032;6.998;2023-02-28T10:12:53;9.42;32.40
52656;SHT85;35474;51.032;6.998;2023-02-28T10:15:23;8.71;31.99
52656;SHT85;35474;51.032;6.998;2023-02-28T10:17:54;8.85;31.26
52656;SHT85;35474;51.032;6.998;2023-02-28T10:20:34;9.47;31.25
52656;SHT85;35474;51.032;6.998;2023-02-28T10:23:09;9.53;30.77
52656;SHT85;35474;51.032;6.998;2023-02-28T10:25:40;9.35;31.21
52656;SHT85;35474;51.032;6.998;2023-02-28T10:28:15;8.82;31.82
52656;SHT85;35474;51.032;6.998;2023-02-28T10:30:47;9.16;31.92
52656;SHT85;35474;51.032;6.998;2023-02-28T10:33:28;9.07;31.85
52656;SHT85;35474;51.032;6.998;2023-02-28T10:35:57;9.02;31.77
52656;SHT85;35474;51.032;6.998;2023-02-28T10:38:28;9.90;31.32
52656;SHT85;35474;51.032;6.998;2023-02-28T10:41:14;9.86;33.18
52656;SHT85;35474;51.032;6.998;2023-02-28T10:43:57;9.91;31.08
52656;SHT85;35474;51.032;6.998;2023-02-28T10:46:50;9.94;30.82
52656;SHT85;35474;51.032;6.998;2023-02-28T10:49:21;9.02;32.52
52656;SHT85;35474;51.032;6.998;2023-02-28T10:51:52;7.54;35.60
52656;SHT85;35474;51.032;6.998;2023-02-28T10:54:30;7.64;35.40
52656;SHT85;35474;51.032;6.998;2023-02-28T10:57:15;8.40;34.19
52656;SHT85;35474;51.032;6.998;2023-02-28T10:59:50;8.73;33.47
52656;SHT85;35474;51.032;6.998;2023-02-28T11:02:35;8.57;33.72
52656;SHT85;35474;51.032;6.998;2023-02-28T11:10:45;9.84;31.86
52656;SHT85;35474;51.032;6.998;2023-02-28T11:13:17;9.47;32.97
52656;SHT85;35474;51.032;6.998;2023-02-28T11:15:56;10.14;32.93
52656;SHT85;35474;51.032;6.998;2023-02-28T11:20:56;9.62;32.98
52656;SHT85;35474;51.032;6.998;2023-02-28T11:23:26;11.26;31.49
52656;SHT85;35474;51.032;6.998;2023-02-28T11:25:56;11.21;30.63
52656;SHT85;35474;51.032;6.998;2023-02-28T11:28:30;9.97;31.78
52656;SHT85;35474;51.032;6.998;2023-02-28T11:36:21;9.16;33.06
52656;SHT85;35474;51.032;6.998;2023-02-28T11:38:53;10.08;32.99
52656;SHT85;35474;51.032;6.998;2023-02-28T11:41:32;10.94;31.04
52656;SHT85;35474;51.032;6.998;2023-02-28T11:44:21;10.93;31.28
52656;SHT85;35474;51.032;6.998;2023-02-28T11:47:11;11.39;30.52
52656;SHT85;35474;51.032;6.998;2023-02-28T11:52:56;11.44;30.43
52656;SHT85;35474;51.032;6.998;2023-02-28T11:55:35;10.56;31.08
52656;SHT85;35474;51.032;6.998;2023-02-28T11:58:20;9.94;32.08
52656;SHT85;35474;51.032;6.998;2023-02-28T12:01:04;10.97;30.93
52656;SHT85;35474;51.032;6.998;2023-02-28T12:06:19;10.17;32.71
52656;SHT85;35474;51.032;6.998;2023-02-28T12:11:53;11.38;29.29
52656;SHT85;35474;51.032;6.998;2023-02-28T12:17:38;8.77;33.22
52656;SHT85;35474;51.032;6.998;2023-02-28T12:20:37;9.08;32.72
52656;SHT85;35474;51.032;6.998;2023-02-28T12:26:18;10.56;30.69
52656;SHT85;35474;51.032;6.998;2023-02-28T12:28:48;10.89;29.63
52656;SHT85;35474;51.032;6.998;2023-02-28T12:31:33;10.21;30.84
52656;SHT85;35474;51.032;6.998;2023-02-28T12:34:06;10.77;30.49
52656;SHT85;35474;51.032;6.998;2023-02-28T12:36:39;10.65;31.14
52656;SHT85;35474;51.032;6.998;2023-02-28T12:39:12;10.68;30.98
52656;SHT85;35474;51.032;6.998;2023-02-28T12:44:20;10.99;30.41
52656;SHT85;35474;51.032;6.998;2023-02-28T12:46:53;11.24;30.36
52656;SHT85;35474;51.032;6.998;2023-02-28T12:52:05;11.03;30.46
52656;SHT85;35474;51.032;6.998;2023-02-28T13:00:16;11.20;29.46
52656;SHT85;35474;51.032;6.998;2023-02-28T13:02:50;11.82;29.18
52656;SHT85;35474;51.032;6.998;2023-02-28T13:08:15;11.28;28.99
52656;SHT85;35474;51.032;6.998;2023-02-28T13:10:50;12.57;28.62
52656;SHT85;35474;51.032;6.998;2023-02-28T13:13:24;13.06;27.38
52656;SHT85;35474;51.032;6.998;2023-02-28T13:15:58;12.36;27.74
52656;SHT85;35474;51.032;6.998;2023-02-28T13:21:04;12.36;28.41
52656;SHT85;35474;51.032;6.998;2023-02-28T13:26:07;11.35;30.07
52656;SHT85;35474;51.032;6.998;2023-02-28T13:31:32;11.88;28.13
52656;SHT85;35474;51.032;6.998;2023-02-28T13:34:12;11.85;28.93
52656;SHT85;35474;51.032;6.998;2023-02-28T13:36:40;11.96;28.28
52656;SHT85;35474;51.032;6.998;2023-02-28T13:39:53;11.21;29.50
52656;SHT85;35474;51.032;6.998;2023-02-28T14:01:53;11.89;29.78
52656;SHT85;35474;51.032;6.998;2023-02-28T14:04:44;11.32;30.10
52656;SHT85;35474;51.032;6.998;2023-02-28T14:07:17;11.48;29.89
52656;SHT85;35474;51.032;6.998;2023-02-28T14:09:51;11.83;29.47
52656;SHT85;35474;51.032;6.998;2023-02-28T14:12:51;12.03;29.24
52656;SHT85;35474;51.032;6.998;2023-02-28T14:18:13;11.49;30.10
52656;SHT85;35474;51.032;6.998;2023-02-28T14:20:47;11.04;31.01
52656;SHT85;35474;51.032;6.998;2023-02-28T14:23:18;11.01;30.82
52656;SHT85;35474;51.032;6.998;2023-02-28T14:29:17;12.02;29.37
52656;SHT85;35474;51.032;6.998;2023-02-28T14:37:54;12.05;29.59
52656;SHT85;35474;51.032;6.998;2023-02-28T14:40:23;12.05;28.82
52656;SHT85;35474;51.032;6.998;2023-02-28T14:42:54;12.23;28.55
52656;SHT85;35474;51.032;6.998;2023-02-28T14:45:30;11.32;30.66
52656;SHT85;35474;51.032;6.998;2023-02-28T14:47:59;11.31;30.02
52656;SHT85;35474;51.032;6.998;2023-02-28T14:50:29;11.68;29.41
52656;SHT85;35474;51.032;6.998;2023-02-28T14:52:57;11.74;29.17
52656;SHT85;35474;51.032;6.998;2023-02-28T14:55:29;11.63;29.85
52656;SHT85;35474;51.032;6.998;2023-02-28T14:57:58;11.76;30.00
52656;SHT85;35474;51.032;6.998;2023-02-28T15:00:49;12.16;29.32
52656;SHT85;35474;51.032;6.998;2023-02-28T15:03:18;12.50;28.82
52656;SHT85;35474;51.032;6.998;2023-02-28T15:05:58;11.92;29.22
52656;SHT85;35474;51.032;6.998;2023-02-28T15:08:27;11.61;29.91
52656;SHT85;35474;51.032;6.998;2023-02-28T15:10:57;11.06;30.30
52656;SHT85;35474;51.032;6.998;2023-02-28T15:13:39;11.01;30.84
52656;SHT85;35474;51.032;6.998;2023-02-28T15:16:19;10.76;31.40
52656;SHT85;35474;51.032;6.998;2023-02-28T15:18:49;10.56;31.20
52656;SHT85;35474;51.032;6.998;2023-02-28T15:21:22;10.49;31.49
52656;SHT85;35474;51.032;6.998;2023-02-28T15:23:53;10.56;31.82
52656;SHT85;35474;51.032;6.998;2023-02-28T15:29:49;11.20;30.33
52656;SHT85;35474;51.032;6.998;2023-02-28T15:43:36;11.20;30.57
52656;SHT85;35474;51.032;6.998;2023-02-28T15:53:43;10.39;31.67
52656;SHT85;35474;51.032;6.998;2023-02-28T15:59:29;10.77;31.59
52656;SHT85;35474;51.032;6.998;2023-02-28T16:12:37;9.90;33.57
52656;SHT85;35474;51.032;6.998;2023-02-28T16:15:08;10.10;32.85
52656;SHT85;35474;51.032;6.998;2023-02-28T16:17:43;10.01;33.25
52656;SHT85;35474;51.032;6.998;2023-02-28T16:20:15;10.18;33.23
52656;SHT85;35474;51.032;6.998;2023-02-28T16:22:43;9.98;33.29
52656;SHT85;35474;51.032;6.998;2023-02-28T16:25:13;9.90;33.58
52656;SHT85;35474;51.032;6.998;2023-02-28T16:27:42;9.50;34.15
52656;SHT85;35474;51.032;6.998;2023-02-28T16:30:21;9.56;34.37
52656;SHT85;35474;51.032;6.998;2023-02-28T16:32:52;9.16;34.52
52656;SHT85;35474;51.032;6.998;2023-02-28T16:35:20;8.70;35.62
52656;SHT85;35474;51.032;6.998;2023-02-28T16:37:48;8.52;36.46
52656;SHT85;35474;51.032;6.998;2023-02-28T16:40:17;8.25;36.76
52656;SHT85;35474;51.032;6.998;2023-02-28T16:42:47;7.91;37.30
52656;SHT85;35474;51.032;6.998;2023-02-28T16:45:26;7.67;37.75
52656;SHT85;35474;51.032;6.998;2023-02-28T16:47:54;7.78;38.40
52656;SHT85;35474;51.032;6.998;2023-02-28T16:50:25;7.81;38.27
52656;SHT85;35474;51.032;6.998;2023-02-28T16:52:54;7.61;38.60
52656;SHT85;35474;51.032;6.998;2023-02-28T16:55:22;7.24;39.11
52656;SHT85;35474;51.032;6.998;2023-02-28T16:57:51;7.03;39.47
52656;SHT85;35474;51.032;6.998;2023-02-28T17:00:19;6.96;39.95
52656;SHT85;35474;51.032;6.998;2023-02-28T17:02:48;6.85;40.19
52656;SHT85;35474;51.032;6.998;2023-02-28T17:05:16;6.65;40.61
52656;SHT85;35474;51.032;6.998;2023-02-28T17:07:45;6.61;41.17
52656;SHT85;35474;51.032;6.998;2023-02-28T17:10:17;6.35;41.44
52656;SHT85;35474;51.032;6.998;2023-02-28T17:12:46;6.28;41.95
52656;SHT85;35474;51.032;6.998;2023-02-28T17:15:13;6.17;42.37
52656;SHT85;35474;51.032;6.998;2023-02-28T17:17:42;6.14;43.91
52656;SHT85;35474;51.032;6.998;2023-02-28T17:20:19;5.95;45.79
52656;SHT85;35474;51.032;6.998;2023-02-28T17:22:49;5.82;46.85
52656;SHT85;35474;51.032;6.998;2023-02-28T17:25:16;5.69;47.58
52656;SHT85;35474;51.032;6.998;2023-02-28T17:27:46;5.49;48.73
52656;SHT85;35474;51.032;6.998;2023-02-28T17:30:13;5.38;49.36
52656;SHT85;35474;51.032;6.998;2023-02-28T17:32:43;5.37;49.60
52656;SHT85;35474;51.032;6.998;2023-02-28T17:35:10;5.21;50.31
52656;SHT85;35474;51.032;6.998;2023-02-28T17:37:40;5.23;50.58
52656;SHT85;35474;51.032;6.998;2023-02-28T17:40:12;5.04;51.12
52656;SHT85;35474;51.032;6.998;2023-02-28T17:42:44;4.81;51.48
52656;SHT85;35474;51.032;6.998;2023-02-28T17:45:11;4.69;51.98
52656;SHT85;35474;51.032;6.998;2023-02-28T17:47:39;4.72;52.08
52656;SHT85;35474;51.032;6.998;2023-02-28T17:50:11;4.81;52.22
52656;SHT85;35474;51.032;6.998;2023-02-28T17:52:40;4.83;52.16
52656;SHT85;35474;51.032;6.998;2023-02-28T17:55:08;4.76;52.33
52656;SHT85;35474;51.032;6.998;2023-02-28T17:57:35;4.56;52.81
52656;SHT85;35474;51.032;6.998;2023-02-28T18:00:02;4.49;53.05
52656;SHT85;35474;51.032;6.998;2023-02-28T18:02:32;4.66;53.30
52656;SHT85;35474;51.032;6.998;2023-02-28T18:04:59;4.70;52.78
52656;SHT85;35474;51.032;6.998;2023-02-28T18:07:25;4.49;53.36
52656;SHT85;35474;51.032;6.998;2023-02-28T18:09:52;4.39;53.49
52656;SHT85;35474;51.032;6.998;2023-02-28T18:12:18;4.44;53.92
52656;SHT85;35474;51.032;6.998;2023-02-28T18:14:45;4.39;53.97
52656;SHT85;35474;51.032;6.998;2023-02-28T18:17:13;4.32;54.26
52656;SHT85;35474;51.032;6.998;2023-02-28T18:19:43;4.25;54.57
52656;SHT85;35474;51.032;6.998;2023-02-28T18:22:09;4.19;54.95
52656;SHT85;35474;51.032;6.998;2023-02-28T18:24:35;4.17;55.16
52656;SHT85;35474;51.032;6.998;2023-02-28T18:27:02;4.15;55.02
52656;SHT85;35474;51.032;6.998;2023-02-28T18:29:29;3.98;55.63
52656;SHT85;35474;51.032;6.998;2023-02-28T18:31:57;3.87;56.16
52656;SHT85;35474;51.032;6.998;2023-02-28T18:34:24;3.87;56.09
52656;SHT85;35474;51.032;6.998;2023-02-28T18:36:51;3.83;56.61
52656;SHT85;35474;51.032;6.998;2023-02-28T18:39:18;3.84;56.70
52656;SHT85;35474;51.032;6.998;2023-02-28T18:41:48;3.90;56.43
52656;SHT85;35474;51.032;6.998;2023-02-28T18:44:15;3.86;56.58
52656;SHT85;35474;51.032;6.998;2023-02-28T18:46:47;3.97;56.77
52656;SHT85;35474;51.032;6.998;2023-02-28T18:49:15;3.64;56.92
52656;SHT85;35474;51.032;6.998;2023-02-28T18:51:42;3.60;57.63
52656;SHT85;35474;51.032;6.998;2023-02-28T18:57:34;3.50;58.19
52656;SHT85;35474;51.032;6.998;2023-02-28T19:00:01;3.39;58.41
52656;SHT85;35474;51.032;6.998;2023-02-28T19:02:28;3.32;58.92
52656;SHT85;35474;51.032;6.998;2023-02-28T19:04:54;3.26;58.94
52656;SHT85;35474;51.032;6.998;2023-02-28T19:07:21;3.22;59.16
52656;SHT85;35474;51.032;6.998;2023-02-28T19:09:47;3.25;59.16
52656;SHT85;35474;51.032;6.998;2023-02-28T19:12:14;3.20;59.32
52656;SHT85;35474;51.032;6.998;2023-02-28T19:14:42;3.11;59.64
52656;SHT85;35474;51.032;6.998;2023-02-28T19:17:08;3.11;59.71
52656;SHT85;35474;51.032;6.998;2023-02-28T19:19:35;3.04;59.76